Time;durP1;ratioP1;P1;durP2;ratioP2;P2;SDS_P1;SDS_P2;PMS_P1;PMS_P2;Temp;Humidity;BMP_temperature;BMP_pressure;BME280_temperature;BME280_humidity;BME280_pressure;Samples;Min_cycle;Max_cycle;Signal;HPM_P1;HPM_P2
2023/02/16 00:00:32;;;;;;;;;;;19.60;31.90;;;;;;8366932;28;20329;-42
2023/02/16 00:04:33;;;;;;;;;;;19.50;31.80;;;;;;8367097;28;19947;-42
2023/02/16 00:08:33;;;;;;;;;;;19.50;31.80;;;;;;8366632;28;20011;-42
2023/02/16 00:16:53;;;;;;;;;;;19.50;31.80;;;;;;8366962;28;19967;-42
2023/02/16 00:20:53;;;;;;;;;;;19.40;31.80;;;;;;8366557;28;19923;-42
2023/02/16 00:24:54;;;;;;;;;;;19.40;31.80;;;;;;8366049;28;19920;-42
2023/02/16 00:28:59;;;;;;;;;;;19.40;31.80;;;;;;8366043;28;19924;-42
2023/02/16 00:33:00;;;;;;;;;;;19.30;31.80;;;;;;8366112;28;19924;-42
2023/02/16 00:37:02;;;;;;;;;;;19.30;31.80;;;;;;8365781;28;19923;-42
2023/02/16 00:41:02;;;;;;;;;;;19.30;31.80;;;;;;8365885;28;19996;-42
2023/02/16 00:45:03;;;;;;;;;;;19.30;31.80;;;;;;8366184;28;20361;-42
2023/02/16 00:49:03;;;;;;;;;;;19.20;31.80;;;;;;8364997;28;19925;-42
2023/02/16 00:53:03;;;;;;;;;;;19.20;31.80;;;;;;8365564;28;20382;-42
2023/02/16 00:57:04;;;;;;;;;;;19.20;31.80;;;;;;8365478;28;19924;-42
2023/02/16 01:01:05;;;;;;;;;;;19.10;31.90;;;;;;8364354;28;19932;-42
2023/02/16 01:05:06;;;;;;;;;;;19.10;31.80;;;;;;8365321;28;19920;-42
2023/02/16 01:13:44;;;;;;;;;;;19.10;31.90;;;;;;8364662;28;19983;-42
2023/02/16 01:17:45;;;;;;;;;;;19.00;31.80;;;;;;8364701;28;20412;-42
2023/02/16 01:21:45;;;;;;;;;;;19.00;31.80;;;;;;8364186;28;19952;-42
2023/02/16 01:25:46;;;;;;;;;;;18.90;31.80;;;;;;8364564;28;19917;-42
2023/02/16 01:29:46;;;;;;;;;;;18.90;31.80;;;;;;8364266;28;19980;-42
2023/02/16 01:33:47;;;;;;;;;;;18.90;31.80;;;;;;8363694;28;20343;-42
2023/02/16 01:37:48;;;;;;;;;;;18.90;31.80;;;;;;8364339;28;19917;-42
2023/02/16 01:41:51;;;;;;;;;;;18.90;31.80;;;;;;8363946;28;19941;-42
2023/02/16 01:45:59;;;;;;;;;;;18.80;31.70;;;;;;8363508;28;19924;-42
2023/02/16 01:50:06;;;;;;;;;;;18.80;31.70;;;;;;8364187;28;19924;-42
2023/02/16 01:54:29;;;;;;;;;;;18.80;31.70;;;;;;8363684;28;19923;-42
2023/02/16 01:58:36;;;;;;;;;;;18.80;31.70;;;;;;8363326;28;19921;-42
2023/02/16 02:02:41;;;;;;;;;;;18.70;31.70;;;;;;8363514;28;19970;-42
2023/02/16 02:06:42;;;;;;;;;;;18.70;31.70;;;;;;8361899;28;19925;-42
2023/02/16 02:10:54;;;;;;;;;;;18.70;31.70;;;;;;8362784;28;19913;-42
2023/02/16 02:14:55;;;;;;;;;;;18.70;31.70;;;;;;8363380;28;19917;-42
2023/02/16 02:18:55;;;;;;;;;;;18.60;31.60;;;;;;8362542;28;19944;-41
2023/02/16 02:27:24;;;;;;;;;;;18.60;31.70;;;;;;8365128;28;19979;-42
2023/02/16 02:31:27;;;;;;;;;;;18.60;31.70;;;;;;8363111;28;19919;-42
2023/02/16 02:35:50;;;;;;;;;;;18.50;31.60;;;;;;8362899;28;19917;-42
2023/02/16 02:40:05;;;;;;;;;;;18.60;31.60;;;;;;8362298;28;20390;-42
2023/02/16 02:44:07;;;;;;;;;;;18.50;31.60;;;;;;8362683;28;19992;-42
2023/02/16 02:48:08;;;;;;;;;;;18.50;31.60;;;;;;8362565;28;19927;-42
2023/02/16 02:52:09;;;;;;;;;;;18.50;31.60;;;;;;8362064;28;19917;-42
2023/02/16 03:00:50;;;;;;;;;;;18.40;31.50;;;;;;8363899;28;19928;-42
2023/02/16 03:04:51;;;;;;;;;;;18.40;31.50;;;;;;8362312;28;19925;-42
2023/02/16 03:08:59;;;;;;;;;;;18.40;31.50;;;;;;8362147;28;19925;-42
2023/02/16 03:13:00;;;;;;;;;;;18.40;31.50;;;;;;8361802;28;19924;-41
2023/02/16 03:30:04;;;;;;;;;;;18.30;31.50;;;;;;8371282;28;19924;-41
2023/02/16 03:34:05;;;;;;;;;;;18.20;31.50;;;;;;8367628;28;20000;-41
2023/02/16 03:38:05;;;;;;;;;;;18.30;31.50;;;;;;8367823;28;20320;-41
2023/02/16 03:42:06;;;;;;;;;;;18.30;31.50;;;;;;8367793;28;19920;-42
2023/02/16 03:46:06;;;;;;;;;;;18.20;31.40;;;;;;8367498;28;20019;-41
2023/02/16 03:50:07;;;;;;;;;;;18.20;31.50;;;;;;8367542;28;19917;-42
2023/02/16 03:54:07;;;;;;;;;;;18.20;31.50;;;;;;8367438;28;19962;-42
2023/02/16 03:58:10;;;;;;;;;;;18.10;31.40;;;;;;8366706;28;19927;-42
2023/02/16 04:02:10;;;;;;;;;;;18.10;31.40;;;;;;8367282;28;19959;-42
2023/02/16 04:06:11;;;;;;;;;;;18.10;31.40;;;;;;8367395;28;19955;-42
2023/02/16 04:10:11;;;;;;;;;;;18.10;31.40;;;;;;8366395;28;20014;-42
2023/02/16 04:14:12;;;;;;;;;;;18.10;31.40;;;;;;8366755;28;19917;-42
2023/02/16 04:18:12;;;;;;;;;;;18.10;31.30;;;;;;8366714;28;20325;-42
2023/02/16 04:22:13;;;;;;;;;;;18.00;31.30;;;;;;8366175;28;19971;-42
2023/02/16 04:26:13;;;;;;;;;;;18.10;31.40;;;;;;8366655;28;19924;-42
2023/02/16 04:30:21;;;;;;;;;;;18.00;31.30;;;;;;8366281;28;20321;-40
2023/02/16 04:34:22;;;;;;;;;;;18.00;31.30;;;;;;8365101;28;19946;-41
2023/02/16 04:38:23;;;;;;;;;;;18.00;31.20;;;;;;8365914;28;19920;-41
2023/02/16 04:42:23;;;;;;;;;;;18.00;31.30;;;;;;8365404;28;20370;-40
2023/02/16 04:46:24;;;;;;;;;;;18.00;31.30;;;;;;8366233;28;19973;-41
2023/02/16 04:50:24;;;;;;;;;;;18.00;31.20;;;;;;8365542;28;19924;-41
2023/02/16 04:54:24;;;;;;;;;;;18.00;31.20;;;;;;8365115;28;19917;-42
2023/02/16 04:58:25;;;;;;;;;;;18.00;31.30;;;;;;8365402;28;20015;-41
2023/02/16 05:02:25;;;;;;;;;;;18.00;31.20;;;;;;8365086;28;19917;-41
2023/02/16 05:06:26;;;;;;;;;;;18.00;31.60;;;;;;8363998;28;19956;-41
2023/02/16 05:10:26;;;;;;;;;;;18.00;31.30;;;;;;8365291;28;19916;-41
2023/02/16 05:14:40;;;;;;;;;;;18.00;31.20;;;;;;8364915;28;19928;-41
2023/02/16 05:18:41;;;;;;;;;;;18.10;31.20;;;;;;8364356;28;19924;-42
2023/02/16 05:22:42;;;;;;;;;;;18.30;31.10;;;;;;8364675;28;19913;-41
2023/02/16 05:26:42;;;;;;;;;;;18.40;31.00;;;;;;8364791;28;20453;-41
2023/02/16 05:30:43;;;;;;;;;;;18.50;30.80;;;;;;8363945;28;19917;-41
2023/02/16 05:34:44;;;;;;;;;;;18.60;30.70;;;;;;8364557;28;20008;-41
2023/02/16 05:38:45;;;;;;;;;;;18.70;30.70;;;;;;8364229;28;19924;-41
2023/02/16 05:42:45;;;;;;;;;;;18.80;30.70;;;;;;8363522;28;19912;-41
2023/02/16 05:46:45;;;;;;;;;;;18.80;30.60;;;;;;8364420;28;19920;-42
2023/02/16 05:50:46;;;;;;;;;;;18.90;30.60;;;;;;8363768;28;19928;-41
2023/02/16 05:54:46;;;;;;;;;;;18.90;30.50;;;;;;8363237;28;19920;-41
2023/02/16 05:58:47;;;;;;;;;;;19.00;30.50;;;;;;8363631;28;19927;-41
2023/02/16 06:02:47;;;;;;;;;;;19.10;30.60;;;;;;8363398;28;20294;-41
2023/02/16 06:06:48;;;;;;;;;;;19.10;30.50;;;;;;8363166;28;19975;-41
2023/02/16 06:10:49;;;;;;;;;;;19.10;30.40;;;;;;8363616;28;20348;-41
2023/02/16 06:14:50;;;;;;;;;;;19.20;30.40;;;;;;8363442;28;19924;-41
2023/02/16 06:18:50;;;;;;;;;;;19.20;30.40;;;;;;8362727;28;19946;-41
2023/02/16 06:22:50;;;;;;;;;;;19.30;30.40;;;;;;8363656;28;20281;-41
2023/02/16 06:26:51;;;;;;;;;;;19.30;30.30;;;;;;8362981;28;20450;-41
2023/02/16 06:30:51;;;;;;;;;;;19.30;30.30;;;;;;8362536;28;19917;-42
2023/02/16 06:34:52;;;;;;;;;;;19.40;30.30;;;;;;8362817;28;19971;-42
2023/02/16 06:38:52;;;;;;;;;;;19.40;30.30;;;;;;8362902;28;19971;-42
2023/02/16 06:42:53;;;;;;;;;;;19.40;30.30;;;;;;8362329;28;20300;-41
2023/02/16 06:46:53;;;;;;;;;;;19.40;30.20;;;;;;8362430;28;19983;-42
2023/02/16 06:50:53;;;;;;;;;;;19.40;30.20;;;;;;8362510;28;19924;-41
2023/02/16 06:54:54;;;;;;;;;;;19.50;30.30;;;;;;8361903;28;19917;-41
2023/02/16 06:58:54;;;;;;;;;;;19.50;30.30;;;;;;8366554;28;19921;-41
2023/02/16 07:02:55;;;;;;;;;;;19.50;30.20;;;;;;8369239;28;19917;-41
2023/02/16 07:06:55;;;;;;;;;;;19.50;30.30;;;;;;8368042;28;20025;-41
2023/02/16 07:10:56;;;;;;;;;;;19.50;30.10;;;;;;8368154;28;19963;-41
2023/02/16 07:14:56;;;;;;;;;;;19.60;30.10;;;;;;8368384;28;19917;-41
2023/02/16 07:18:56;;;;;;;;;;;19.60;30.00;;;;;;8367592;28;20324;-41
2023/02/16 07:22:57;;;;;;;;;;;19.60;30.10;;;;;;8368660;28;19920;-41
2023/02/16 07:26:57;;;;;;;;;;;19.60;30.00;;;;;;8368011;28;19925;-41
2023/02/16 07:30:58;;;;;;;;;;;19.60;30.10;;;;;;8367407;28;19917;-41
2023/02/16 07:34:58;;;;;;;;;;;19.60;30.00;;;;;;8367734;28;19923;-41
2023/02/16 07:38:59;;;;;;;;;;;19.60;30.10;;;;;;8367741;28;20387;-41
2023/02/16 07:43:00;;;;;;;;;;;19.60;30.10;;;;;;8367374;28;19917;-41
2023/02/16 07:47:00;;;;;;;;;;;19.60;30.00;;;;;;8367342;28;19924;-41
2023/02/16 07:51:01;;;;;;;;;;;19.70;30.00;;;;;;8367447;28;19917;-41
2023/02/16 07:55:02;;;;;;;;;;;19.70;30.00;;;;;;8366659;28;19928;-42
2023/02/16 07:59:02;;;;;;;;;;;19.70;30.00;;;;;;8367532;28;19928;-41
2023/02/16 08:03:03;;;;;;;;;;;19.70;30.00;;;;;;8367131;28;20321;-42
2023/02/16 08:07:03;;;;;;;;;;;19.70;30.00;;;;;;8366404;28;19983;-42
2023/02/16 08:11:08;;;;;;;;;;;19.70;30.00;;;;;;8347421;28;20429;-42
2023/02/16 08:15:09;;;;;;;;;;;19.70;30.00;;;;;;8345971;28;19917;-41
2023/02/16 08:19:11;;;;;;;;;;;19.70;30.00;;;;;;8365867;28;20297;-42
2023/02/16 08:23:12;;;;;;;;;;;19.60;29.90;;;;;;8366640;28;19920;-41
2023/02/16 08:27:12;;;;;;;;;;;19.60;29.90;;;;;;8366116;28;19932;-42
2023/02/16 08:31:14;;;;;;;;;;;19.60;29.90;;;;;;8365729;28;19920;-41
2023/02/16 08:35:14;;;;;;;;;;;19.50;29.90;;;;;;8366105;28;20020;-42
2023/02/16 08:39:16;;;;;;;;;;;19.50;29.90;;;;;;8365942;28;19921;-42
2023/02/16 08:43:16;;;;;;;;;;;19.40;30.00;;;;;;8365498;28;19913;-42
2023/02/16 08:47:19;;;;;;;;;;;19.40;30.00;;;;;;8365496;28;20370;-42
2023/02/16 08:51:19;;;;;;;;;;;19.40;30.00;;;;;;8365130;28;19916;-41
2023/02/16 08:55:20;;;;;;;;;;;19.30;30.00;;;;;;8365216;28;19924;-42
2023/02/16 08:59:21;;;;;;;;;;;19.30;30.00;;;;;;8365729;28;20293;-42
2023/02/16 09:03:22;;;;;;;;;;;19.30;30.00;;;;;;8365085;28;19917;-42
2023/02/16 09:07:22;;;;;;;;;;;19.20;30.00;;;;;;8365195;28;19932;-42
2023/02/16 09:11:23;;;;;;;;;;;19.20;30.10;;;;;;8364914;28;19921;-42
2023/02/16 09:15:24;;;;;;;;;;;19.20;30.10;;;;;;8364221;28;19921;-41
2023/02/16 09:19:24;;;;;;;;;;;19.10;30.10;;;;;;8364380;28;21352;-42
2023/02/16 09:23:26;;;;;;;;;;;19.10;30.10;;;;;;8364827;28;19947;-42
2023/02/16 09:27:26;;;;;;;;;;;19.10;30.20;;;;;;8363698;28;19925;-42
2023/02/16 09:31:28;;;;;;;;;;;19.10;30.30;;;;;;8364224;28;19923;-42
2023/02/16 09:35:28;;;;;;;;;;;19.00;30.30;;;;;;8364158;28;19923;-42
2023/02/16 09:39:29;;;;;;;;;;;19.00;30.30;;;;;;8363370;28;19913;-42
2023/02/16 09:43:29;;;;;;;;;;;19.00;30.40;;;;;;8364087;28;19955;-42
2023/02/16 09:47:32;;;;;;;;;;;18.90;30.30;;;;;;8363591;28;19925;-42
2023/02/16 09:51:35;;;;;;;;;;;18.90;30.40;;;;;;8363288;28;20000;-42
2023/02/16 09:55:58;;;;;;;;;;;18.90;30.30;;;;;;8363740;28;20011;-42
2023/02/16 10:00:22;;;;;;;;;;;18.90;30.40;;;;;;8363684;28;19933;-42
2023/02/16 10:04:37;;;;;;;;;;;18.90;30.50;;;;;;8363493;28;19948;-42
2023/02/16 10:08:45;;;;;;;;;;;18.80;30.50;;;;;;8363465;28;19921;-42
2023/02/16 10:12:50;;;;;;;;;;;18.80;30.50;;;;;;8362654;28;19917;-42
2023/02/16 10:17:00;;;;;;;;;;;18.80;30.60;;;;;;8363092;28;19979;-41
2023/02/16 10:21:01;;;;;;;;;;;18.80;30.60;;;;;;8362909;28;20054;-42
2023/02/16 10:25:02;;;;;;;;;;;18.70;30.60;;;;;;8362229;28;19924;-42
2023/02/16 10:29:05;;;;;;;;;;;18.70;30.60;;;;;;8362709;28;20378;-42
2023/02/16 10:33:16;;;;;;;;;;;18.70;30.60;;;;;;8361750;28;19917;-42
2023/02/16 10:37:20;;;;;;;;;;;18.80;30.70;;;;;;8362503;28;19917;-42
2023/02/16 10:41:29;;;;;;;;;;;18.70;30.60;;;;;;8362719;28;19916;-42
2023/02/16 10:45:36;;;;;;;;;;;18.70;30.70;;;;;;8362028;28;19955;-44
2023/02/16 10:49:36;;;;;;;;;;;18.70;30.70;;;;;;8362897;28;19920;-42
2023/02/16 10:53:49;;;;;;;;;;;18.70;30.70;;;;;;8362567;28;20369;-42
2023/02/16 10:57:55;;;;;;;;;;;18.70;30.70;;;;;;8361913;28;19955;-42
2023/02/16 11:01:59;;;;;;;;;;;18.70;30.70;;;;;;8362383;28;19917;-42
2023/02/16 11:06:11;;;;;;;;;;;18.70;30.80;;;;;;8362142;28;20609;-41
2023/02/16 11:10:20;;;;;;;;;;;18.70;30.80;;;;;;8331894;28;19921;-42
2023/02/16 11:14:22;;;;;;;;;;;18.60;30.70;;;;;;8362239;28;19912;-42
2023/02/16 11:18:27;;;;;;;;;;;18.70;30.80;;;;;;8361397;28;20370;-42
2023/02/16 11:22:32;;;;;;;;;;;18.70;30.80;;;;;;8362323;28;19917;-41
2023/02/16 11:26:33;;;;;;;;;;;18.70;30.80;;;;;;8361775;28;19925;-42
2023/02/16 11:30:33;;;;;;;;;;;18.60;30.80;;;;;;8361360;28;19920;-42
2023/02/16 11:34:35;;;;;;;;;;;18.60;30.80;;;;;;8361929;28;20365;-42
2023/02/16 11:38:36;;;;;;;;;;;18.60;30.80;;;;;;8361803;28;19917;-42
2023/02/16 11:42:43;;;;;;;;;;;18.60;30.90;;;;;;8361453;28;19924;-41
2023/02/16 11:46:43;;;;;;;;;;;18.60;30.80;;;;;;8367459;28;19925;-41
2023/02/16 11:50:55;;;;;;;;;;;18.60;30.80;;;;;;8367352;28;19917;-42
2023/02/16 11:54:57;;;;;;;;;;;18.60;30.90;;;;;;8367005;28;19913;-41
2023/02/16 11:59:11;;;;;;;;;;;18.60;30.90;;;;;;8367037;28;20362;-42
2023/02/16 12:03:12;;;;;;;;;;;18.60;31.00;;;;;;8369947;28;20293;-42
2023/02/16 12:07:15;;;;;;;;;;;18.60;31.00;;;;;;8366173;28;19931;-41
2023/02/16 12:11:34;;;;;;;;;;;18.60;31.00;;;;;;8366921;28;19921;-41
2023/02/16 12:15:41;;;;;;;;;;;18.60;30.90;;;;;;8366363;28;19924;-42
2023/02/16 12:19:52;;;;;;;;;;;18.60;31.00;;;;;;8366862;28;19913;-42
2023/02/16 12:24:00;;;;;;;;;;;18.60;30.90;;;;;;8366526;28;19938;-43
2023/02/16 12:28:18;;;;;;;;;;;18.60;31.00;;;;;;8365757;28;19960;-42
2023/02/16 12:32:38;;;;;;;;;;;18.60;31.00;;;;;;8366257;28;19959;-43
2023/02/16 12:36:57;;;;;;;;;;;18.60;31.00;;;;;;8365448;28;20223;-42
2023/02/16 12:41:13;;;;;;;;;;;18.60;31.10;;;;;;8365871;28;19944;-42
2023/02/16 12:45:35;;;;;;;;;;;18.60;31.00;;;;;;8366083;28;20373;-42
2023/02/16 12:49:46;;;;;;;;;;;18.60;31.10;;;;;;8365665;28;19939;-43
2023/02/16 12:53:46;;;;;;;;;;;18.60;31.10;;;;;;8365282;28;20369;-43
2023/02/16 12:57:55;;;;;;;;;;;18.60;31.10;;;;;;8364111;28;19917;-42
2023/02/16 13:01:57;;;;;;;;;;;18.60;31.10;;;;;;8365203;28;19940;-42
2023/02/16 13:06:02;;;;;;;;;;;18.60;31.10;;;;;;8365086;28;20378;-43
2023/02/16 13:10:06;;;;;;;;;;;18.60;31.10;;;;;;8364560;28;19917;-42
2023/02/16 13:14:12;;;;;;;;;;;18.60;31.70;;;;;;8364827;28;19920;-42
2023/02/16 13:18:20;;;;;;;;;;;18.60;31.20;;;;;;8364759;28;19948;-42
2023/02/16 13:22:25;;;;;;;;;;;18.60;31.20;;;;;;8363549;28;25910;-43
2023/02/16 13:26:26;;;;;;;;;;;18.60;31.20;;;;;;8364334;28;19925;-43
2023/02/16 13:30:47;;;;;;;;;;;18.60;31.20;;;;;;8364137;28;19986;-42
2023/02/16 13:34:48;;;;;;;;;;;18.50;31.20;;;;;;8364608;28;20285;-42
2023/02/16 13:38:49;;;;;;;;;;;18.50;31.30;;;;;;8364121;28;19917;-43
2023/02/16 13:43:08;;;;;;;;;;;18.50;31.30;;;;;;8363568;28;20319;-42
2023/02/16 13:47:12;;;;;;;;;;;18.60;31.30;;;;;;8363716;28;19932;-42
2023/02/16 13:51:15;;;;;;;;;;;18.60;31.30;;;;;;8363713;28;20651;-43
2023/02/16 13:55:32;;;;;;;;;;;18.60;31.30;;;;;;8363624;28;20280;-43
2023/02/16 13:59:36;;;;;;;;;;;18.60;31.30;;;;;;8363406;28;19920;-42
2023/02/16 14:03:37;;;;;;;;;;;18.60;31.30;;;;;;8362914;28;19925;-42
2023/02/16 14:07:38;;;;;;;;;;;18.50;31.30;;;;;;8361425;28;19932;-43
2023/02/16 14:11:56;;;;;;;;;;;18.50;31.30;;;;;;8363220;28;19962;-42
2023/02/16 14:15:58;;;;;;;;;;;18.60;31.30;;;;;;8362936;28;19913;-42
2023/02/16 14:19:59;;;;;;;;;;;18.50;31.30;;;;;;8363057;28;19917;-41
2023/02/16 14:24:02;;;;;;;;;;;18.50;31.40;;;;;;8363258;28;20028;-41
2023/02/16 14:28:04;;;;;;;;;;;18.50;31.40;;;;;;8362470;28;19925;-42
2023/02/16 14:32:23;;;;;;;;;;;18.50;31.40;;;;;;8362932;28;20362;-41
2023/02/16 14:36:25;;;;;;;;;;;18.50;31.30;;;;;;8362406;28;20011;-41
2023/02/16 14:40:35;;;;;;;;;;;18.50;31.40;;;;;;8363007;28;19913;-42
2023/02/16 14:44:44;;;;;;;;;;;18.50;31.40;;;;;;8362628;28;19996;-42
2023/02/16 14:49:24;;;;;;;;;;;18.50;31.50;;;;;;8362130;28;19960;-42
2023/02/16 14:53:25;;;;;;;;;;;18.50;31.40;;;;;;8228885;28;19928;-41
2023/02/16 15:06:43;;;;;;;;;;;18.50;31.50;;;;;;8361379;28;19947;-41
2023/02/16 15:10:47;;;;;;;;;;;18.50;31.60;;;;;;8362615;28;20373;-41
2023/02/16 15:14:49;;;;;;;;;;;18.50;31.60;;;;;;8361832;28;19981;-42
2023/02/16 15:18:54;;;;;;;;;;;18.50;31.60;;;;;;8363798;28;19944;-42
2023/02/16 15:22:56;;;;;;;;;;;18.50;31.60;;;;;;8368461;28;19974;-41
2023/02/16 15:27:00;;;;;;;;;;;18.40;31.40;;;;;;8368684;28;20016;-42
2023/02/16 15:31:05;;;;;;;;;;;18.50;31.60;;;;;;8368059;28;19920;-42
2023/02/16 15:35:20;;;;;;;;;;;18.50;31.60;;;;;;8368341;28;20281;-43
2023/02/16 15:39:29;;;;;;;;;;;18.50;31.60;;;;;;8367723;28;19924;-42
2023/02/16 15:43:30;;;;;;;;;;;18.40;31.50;;;;;;8368072;28;19978;-42
2023/02/16 15:47:31;;;;;;;;;;;18.40;31.60;;;;;;8367399;28;19978;-42
2023/02/16 15:51:33;;;;;;;;;;;18.40;31.50;;;;;;8367156;28;19990;-42
2023/02/16 15:55:33;;;;;;;;;;;18.40;31.60;;;;;;8367226;28;19971;-42
2023/02/16 15:59:37;;;;;;;;;;;18.40;31.60;;;;;;8367435;28;20007;-42
2023/02/16 16:03:45;;;;;;;;;;;18.40;31.50;;;;;;8366716;28;19966;-42
2023/02/16 16:07:45;;;;;;;;;;;18.40;31.50;;;;;;8367082;28;19931;-42
2023/02/16 16:11:47;;;;;;;;;;;18.40;31.70;;;;;;8367444;28;19917;-42
2023/02/16 16:15:48;;;;;;;;;;;18.50;31.80;;;;;;8366224;28;19917;-42
2023/02/16 16:19:50;;;;;;;;;;;18.60;31.60;;;;;;8366522;28;19921;-42
2023/02/16 16:24:10;;;;;;;;;;;18.70;31.70;;;;;;8366562;28;19917;-42
2023/02/16 16:28:13;;;;;;;;;;;18.80;31.60;;;;;;8365805;28;20463;-41
2023/02/16 16:32:20;;;;;;;;;;;18.90;31.60;;;;;;8365197;28;19920;-42
2023/02/16 16:36:26;;;;;;;;;;;19.00;31.60;;;;;;8365986;28;20402;-42
2023/02/16 16:40:31;;;;;;;;;;;19.10;31.60;;;;;;8366011;28;19916;-42
2023/02/16 16:44:33;;;;;;;;;;;19.10;31.40;;;;;;8365883;28;19916;-41
2023/02/16 16:48:36;;;;;;;;;;;19.20;31.50;;;;;;8365300;28;20098;-42
2023/02/16 16:52:38;;;;;;;;;;;19.30;31.40;;;;;;8365765;28;19967;-42
2023/02/16 16:56:39;;;;;;;;;;;19.30;31.50;;;;;;8366054;28;20369;-42
2023/02/16 17:00:41;;;;;;;;;;;19.40;31.40;;;;;;8365018;28;19952;-42
2023/02/16 17:04:41;;;;;;;;;;;19.50;31.50;;;;;;8365358;28;20377;-42
2023/02/16 17:08:42;;;;;;;;;;;19.50;31.50;;;;;;8365010;28;19920;-42
2023/02/16 17:12:43;;;;;;;;;;;19.50;31.40;;;;;;8346402;28;19916;-42
2023/02/16 17:16:45;;;;;;;;;;;19.60;31.50;;;;;;8365113;28;19963;-42
2023/02/16 17:20:45;;;;;;;;;;;19.60;31.50;;;;;;8364913;28;19917;-41
2023/02/16 17:24:46;;;;;;;;;;;19.60;31.40;;;;;;8364123;28;19917;-42
2023/02/16 17:28:47;;;;;;;;;;;19.60;31.40;;;;;;8364778;28;20331;-41
2023/02/16 17:32:47;;;;;;;;;;;19.70;31.50;;;;;;8364276;28;19916;-41
2023/02/16 17:36:47;;;;;;;;;;;19.70;31.40;;;;;;8363997;28;19912;-40
2023/02/16 17:40:49;;;;;;;;;;;19.80;31.40;;;;;;8364334;28;20377;-44
2023/02/16 17:44:49;;;;;;;;;;;19.80;31.40;;;;;;8364260;28;19913;-43
2023/02/16 17:48:52;;;;;;;;;;;19.90;31.40;;;;;;8363466;28;19925;-44
2023/02/16 17:52:56;;;;;;;;;;;19.80;31.30;;;;;;8364251;28;19913;-44
2023/02/16 17:56:56;;;;;;;;;;;19.90;31.40;;;;;;8364457;28;19917;-45
2023/02/16 18:00:56;;;;;;;;;;;19.90;31.40;;;;;;8363905;28;20012;-43
2023/02/16 18:04:57;;;;;;;;;;;20.00;31.40;;;;;;8363602;28;20373;-44
2023/02/16 18:08:57;;;;;;;;;;;20.00;31.40;;;;;;8363410;28;19927;-43
2023/02/16 18:12:58;;;;;;;;;;;20.00;31.40;;;;;;8362898;28;21068;-44
2023/02/16 18:16:58;;;;;;;;;;;20.00;31.30;;;;;;8363917;28;19920;-42
2023/02/16 18:21:00;;;;;;;;;;;20.00;31.30;;;;;;8363333;28;19917;-43
2023/02/16 18:25:00;;;;;;;;;;;20.00;31.30;;;;;;8362668;28;19998;-44
2023/02/16 18:29:00;;;;;;;;;;;20.10;31.30;;;;;;8363060;28;19921;-43
2023/02/16 18:33:01;;;;;;;;;;;20.10;31.30;;;;;;8363345;28;19944;-45
2023/02/16 18:37:02;;;;;;;;;;;20.10;31.30;;;;;;8362849;28;20360;-43
2023/02/16 18:41:02;;;;;;;;;;;20.10;31.30;;;;;;8363228;28;19924;-43
2023/02/16 18:45:03;;;;;;;;;;;20.10;31.30;;;;;;8362826;28;19912;-42
2023/02/16 18:49:05;;;;;;;;;;;20.10;31.30;;;;;;8362231;28;19968;-43
2023/02/16 18:53:05;;;;;;;;;;;20.10;31.30;;;;;;8363974;28;19956;-43
2023/02/16 18:57:06;;;;;;;;;;;20.20;31.30;;;;;;8369662;28;19970;-43
2023/02/16 19:01:14;;;;;;;;;;;20.20;31.30;;;;;;8369168;28;19935;-42
2023/02/16 19:05:14;;;;;;;;;;;20.20;31.30;;;;;;8369352;28;19921;-42
2023/02/16 19:09:15;;;;;;;;;;;20.20;31.30;;;;;;8369123;28;19932;-44
2023/02/16 19:13:15;;;;;;;;;;;20.20;31.30;;;;;;8368317;28;20321;-43
2023/02/16 19:17:16;;;;;;;;;;;20.30;31.30;;;;;;8369013;28;19938;-43
2023/02/16 19:21:16;;;;;;;;;;;20.30;31.30;;;;;;8368749;28;19970;-44
2023/02/16 19:25:17;;;;;;;;;;;20.30;31.20;;;;;;8368421;28;20011;-42
2023/02/16 19:29:17;;;;;;;;;;;20.30;31.30;;;;;;8368074;28;19998;-42
2023/02/16 19:33:17;;;;;;;;;;;20.30;31.20;;;;;;8367747;28;19989;-42
2023/02/16 19:37:18;;;;;;;;;;;20.40;31.30;;;;;;8368462;28;19916;-43
2023/02/16 19:41:21;;;;;;;;;;;20.40;31.30;;;;;;8367860;28;19916;-43
2023/02/16 19:45:21;;;;;;;;;;;20.40;31.30;;;;;;8367318;28;20445;-42
2023/02/16 19:49:21;;;;;;;;;;;20.40;31.20;;;;;;8367999;28;19974;-42
2023/02/16 19:53:22;;;;;;;;;;;20.40;31.20;;;;;;8367610;28;20070;-42
2023/02/16 19:57:22;;;;;;;;;;;20.40;31.20;;;;;;8367682;28;20328;-43
2023/02/16 20:01:24;;;;;;;;;;;20.50;31.20;;;;;;8368031;28;19963;-43
2023/02/16 20:05:24;;;;;;;;;;;20.50;31.20;;;;;;8367423;28;20321;-42
2023/02/16 20:09:25;;;;;;;;;;;20.50;31.20;;;;;;8365570;28;19932;-42
2023/02/16 20:13:26;;;;;;;;;;;20.50;31.20;;;;;;8367230;28;19917;-42
2023/02/16 20:17:26;;;;;;;;;;;20.50;31.20;;;;;;8367049;28;20366;-41
2023/02/16 20:21:28;;;;;;;;;;;20.50;31.20;;;;;;8366127;28;19912;-41
2023/02/16 20:25:28;;;;;;;;;;;20.50;31.20;;;;;;8366633;28;19924;-42
2023/02/16 20:29:29;;;;;;;;;;;20.50;31.20;;;;;;8366621;28;19925;-42
2023/02/16 20:33:30;;;;;;;;;;;20.50;31.10;;;;;;8366019;28;19916;-41
2023/02/16 20:37:30;;;;;;;;;;;20.50;31.10;;;;;;8366284;28;20405;-42
2023/02/16 20:41:31;;;;;;;;;;;20.60;31.10;;;;;;8366325;28;19917;-43
2023/02/16 20:45:31;;;;;;;;;;;20.60;31.10;;;;;;8365608;28;20282;-42
2023/02/16 20:49:31;;;;;;;;;;;20.60;31.10;;;;;;8365691;28;19925;-42
2023/02/16 20:53:33;;;;;;;;;;;20.60;31.60;;;;;;8366247;28;19913;-41
2023/02/16 20:57:34;;;;;;;;;;;20.60;31.10;;;;;;8365150;28;20398;-41
2023/02/16 21:01:37;;;;;;;;;;;20.60;31.10;;;;;;8365658;28;19971;-42
2023/02/16 21:05:38;;;;;;;;;;;20.60;31.10;;;;;;8365414;28;20338;-42
2023/02/16 21:09:39;;;;;;;;;;;20.60;31.10;;;;;;8364774;28;19925;-41
2023/02/16 21:13:40;;;;;;;;;;;20.50;31.00;;;;;;8365263;28;19920;-43
2023/02/16 21:17:40;;;;;;;;;;;20.50;31.10;;;;;;8364462;28;19917;-42
2023/02/16 21:21:41;;;;;;;;;;;20.50;31.10;;;;;;8364549;28;19916;-42
2023/02/16 21:25:41;;;;;;;;;;;20.50;31.60;;;;;;8365159;28;20354;-42
2023/02/16 21:29:42;;;;;;;;;;;20.50;31.10;;;;;;8364788;28;19921;-43
2023/02/16 21:33:42;;;;;;;;;;;20.50;31.00;;;;;;8364441;28;19917;-42
2023/02/16 21:37:43;;;;;;;;;;;20.50;31.00;;;;;;8364460;28;19961;-43
2023/02/16 21:41:43;;;;;;;;;;;20.50;31.00;;;;;;8364238;28;19924;-42
2023/02/16 21:45:43;;;;;;;;;;;20.40;31.00;;;;;;8363772;28;19924;-42
2023/02/16 21:49:45;;;;;;;;;;;20.40;31.00;;;;;;8363944;28;19924;-43
2023/02/16 21:53:45;;;;;;;;;;;20.40;31.00;;;;;;8364182;28;19927;-43
2023/02/16 21:57:46;;;;;;;;;;;20.40;31.00;;;;;;8363343;28;19949;-42
2023/02/16 22:01:49;;;;;;;;;;;20.40;31.00;;;;;;8363849;28;19924;-42
2023/02/16 22:05:50;;;;;;;;;;;20.30;31.00;;;;;;8363671;28;19916;-42
2023/02/16 22:09:50;;;;;;;;;;;20.30;31.00;;;;;;8362985;28;19925;-43
2023/02/16 22:13:51;;;;;;;;;;;20.30;31.00;;;;;;8363575;28;20008;-42
2023/02/16 22:17:52;;;;;;;;;;;20.30;31.00;;;;;;8363184;28;20389;-43
2023/02/16 22:21:52;;;;;;;;;;;20.20;31.00;;;;;;8362841;28;19917;-42
2023/02/16 22:25:53;;;;;;;;;;;20.20;31.00;;;;;;8363046;28;19987;-43
2023/02/16 22:29:53;;;;;;;;;;;20.20;31.00;;;;;;8362299;28;19961;-42
2023/02/16 22:33:54;;;;;;;;;;;20.10;31.00;;;;;;8362737;28;20365;-43
2023/02/16 22:37:55;;;;;;;;;;;20.10;31.10;;;;;;8363073;28;19927;-43
2023/02/16 22:41:55;;;;;;;;;;;20.10;31.10;;;;;;8363205;28;20386;-43
2023/02/16 22:45:56;;;;;;;;;;;20.10;31.10;;;;;;8362352;28;19921;-42
2023/02/16 22:49:56;;;;;;;;;;;20.00;31.10;;;;;;8362805;28;20387;-42
2023/02/16 22:53:57;;;;;;;;;;;19.90;31.10;;;;;;8362907;28;19966;-42
2023/02/16 22:57:58;;;;;;;;;;;19.90;31.20;;;;;;8361966;28;20373;-42
2023/02/16 23:01:58;;;;;;;;;;;19.90;31.20;;;;;;8362030;28;19924;-42
2023/02/16 23:05:59;;;;;;;;;;;19.90;31.30;;;;;;8361317;28;19923;-43
2023/02/16 23:10:00;;;;;;;;;;;19.80;31.30;;;;;;8361780;28;19978;-43
2023/02/16 23:14:00;;;;;;;;;;;19.80;31.30;;;;;;8362628;28;19912;-43
2023/02/16 23:18:01;;;;;;;;;;;19.80;31.30;;;;;;8362309;28;19925;-43
2023/02/16 23:22:01;;;;;;;;;;;19.70;31.30;;;;;;8361981;28;20427;-42
2023/02/16 23:26:04;;;;;;;;;;;19.70;31.40;;;;;;8362227;28;19917;-44
2023/02/16 23:30:05;;;;;;;;;;;19.70;31.40;;;;;;8361813;28;20232;-42
2023/02/16 23:34:06;;;;;;;;;;;19.60;31.40;;;;;;8361667;28;19916;-42
2023/02/16 23:38:10;;;;;;;;;;;19.60;31.40;;;;;;8361938;28;19955;-42
2023/02/16 23:42:10;;;;;;;;;;;19.60;31.50;;;;;;8367651;28;20290;-42
2023/02/16 23:46:10;;;;;;;;;;;19.50;31.40;;;;;;8367502;28;20012;-42
2023/02/16 23:50:11;;;;;;;;;;;19.50;31.40;;;;;;8367760;28;19920;-43
2023/02/16 23:54:11;;;;;;;;;;;19.50;31.40;;;;;;8367623;28;20020;-43
2023/02/16 23:58:12;;;;;;;;;;;19.50;31.50;;;;;;8366819;28;20282;-43
